Time,TemperatureF,DewpointF,PressureIn,WindDirection,WindDirectionDegrees,WindSpeedMPH,WindSpeedGustMPH,Humidity,HourlyPrecipIn,Conditions,Clouds,dailyrainin,SolarRadiationWatts/m^2,SoftwareType,DateUTC
2013-07-04 00:06:00,73.0,56.0,29.75,West,277,1.0,2.0,56,0.00,,,0.00,0,weatherlink.com 1.10,2013-07-04 07:06:00,
2013-07-04 00:21:00,72.6,56.0,29.74,West,277,0.0,1.0,57,0.00,,,0.00,0,weatherlink.com 1.10,2013-07-04 07:21:00,
2013-07-04 00:36:00,72.2,56.0,29.75,West,277,0.0,1.0,58,0.00,,,0.00,0,weatherlink.com 1.10,2013-07-04 07:36:00,
2013-07-04 00:51:00,71.8,57.0,29.74,West,277,1.0,2.0,59,0.00,,,0.00,0,weatherlink.com 1.10,2013-07-04 07:51:00,
2013-07-04 01:06:00,71.2,57.0,29.74,West,266,0.0,3.0,61,0.00,,,0.00,0,weatherlink.com 1.10,2013-07-04 08:06:00,
2013-07-04 01:21:00,71.0,57.0,29.75,West,266,1.0,2.0,61,0.00,,,0.00,0,weatherlink.com 1.10,2013-07-04 08:21:00,
2013-07-04 01:37:00,70.6,57.0,29.74,West,265,0.0,2.0,62,0.00,,,0.00,0,weatherlink.com 1.10,2013-07-04 08:37:00,
2013-07-04 01:52:00,70.2,57.0,29.74,West,265,0.0,1.0,63,0.00,,,0.00,0,weatherlink.com 1.10,2013-07-04 08:52:00,
2013-07-04 02:07:00,69.9,57.0,29.74,West,265,0.0,1.0,64,0.00,,,0.00,0,weatherlink.com 1.10,2013-07-04 09:07:00,
2013-07-04 02:22:00,69.5,57.0,29.74,West,265,1.0,1.0,65,0.00,,,0.00,0,weatherlink.com 1.10,2013-07-04 09:22:00,
2013-07-04 02:37:00,68.8,57.0,29.73,West,265,0.0,1.0,66,0.00,,,0.00,0,weatherlink.com 1.10,2013-07-04 09:37:00,
2013-07-04 02:52:00,68.5,57.0,29.73,West,265,0.0,2.0,67,0.00,,,0.00,0,weatherlink.com 1.10,2013-07-04 09:52:00,
2013-07-04 03:07:00,68.6,57.0,29.73,West,266,1.0,2.0,66,0.00,,,0.00,0,weatherlink.com 1.10,2013-07-04 10:07:00,
2013-07-04 03:22:00,68.6,57.0,29.73,West,266,1.0,2.0,67,0.00,,,0.00,0,weatherlink.com 1.10,2013-07-04 10:22:00,
2013-07-04 03:37:00,68.8,57.0,29.72,West,266,1.0,2.0,67,0.00,,,0.00,0,weatherlink.com 1.10,2013-07-04 10:37:00,
2013-07-04 03:52:00,69.6,58.0,29.72,West,265,0.0,2.0,66,0.00,,,0.00,0,weatherlink.com 1.10,2013-07-04 10:52:00,
2013-07-04 04:07:00,69.9,58.0,29.72,West,265,0.0,1.0,66,0.00,,,0.00,0,weatherlink.com 1.10,2013-07-04 11:07:00,
2013-07-04 04:22:00,70.0,58.0,29.73,West,265,0.0,1.0,65,0.00,,,0.00,0,weatherlink.com 1.10,2013-07-04 11:22:00,
2013-07-04 04:37:00,69.5,58.0,29.72,West,265,0.0,1.0,66,0.00,,,0.00,0,weatherlink.com 1.10,2013-07-04 11:37:00,
2013-07-04 04:52:00,69.0,58.0,29.71,West,265,0.0,0.0,67,0.00,,,0.00,0,weatherlink.com 1.10,2013-07-04 11:52:00,
2013-07-04 05:07:00,68.8,57.0,29.71,West,265,0.0,0.0,67,0.00,,,0.00,0,weatherlink.com 1.10,2013-07-04 12:07:00,
2013-07-04 05:22:00,68.7,58.0,29.71,West,265,0.0,0.0,68,0.00,,,0.00,0,weatherlink.com 1.10,2013-07-04 12:22:00,
2013-07-04 05:37:00,69.0,58.0,29.71,West,265,1.0,1.0,67,0.00,,,0.00,0,weatherlink.com 1.10,2013-07-04 12:37:00,
2013-07-04 05:52:00,69.5,58.0,29.72,West,265,1.0,2.0,67,0.00,,,0.00,0,weatherlink.com 1.10,2013-07-04 12:52:00,
2013-07-04 06:07:00,69.4,57.0,29.72,West,271,0.0,3.0,66,0.00,,,0.00,9,weatherlink.com 1.10,2013-07-04 13:07:00,
2013-07-04 06:22:00,69.2,58.0,29.72,West,271,0.0,2.0,67,0.00,,,0.00,14,weatherlink.com 1.10,2013-07-04 13:22:00,
2013-07-04 06:37:00,69.1,58.0,29.72,West,271,0.0,2.0,68,0.00,,,0.00,21,weatherlink.com 1.10,2013-07-04 13:37:00,
2013-07-04 06:52:00,69.2,58.0,29.72,West,271,0.0,1.0,68,0.00,,,0.00,35,weatherlink.com 1.10,2013-07-04 13:52:00,
2013-07-04 07:07:00,69.7,59.0,29.72,West,271,0.0,0.0,69,0.00,,,0.00,141,weatherlink.com 1.10,2013-07-04 14:07:00,
2013-07-04 07:22:00,71.0,60.0,29.72,West,271,0.0,1.0,68,0.00,,,0.00,44,weatherlink.com 1.10,2013-07-04 14:22:00,
2013-07-04 07:37:00,72.4,61.0,29.72,West,271,0.0,0.0,67,0.00,,,0.00,83,weatherlink.com 1.10,2013-07-04 14:37:00,
2013-07-04 07:52:00,74.1,62.0,29.72,West,271,0.0,1.0,65,0.00,,,0.00,120,weatherlink.com 1.10,2013-07-04 14:52:00,
2013-07-04 08:07:00,75.4,62.0,29.73,West,271,0.0,2.0,63,0.00,,,0.00,341,weatherlink.com 1.10,2013-07-04 15:07:00,
2013-07-04 08:22:00,76.7,62.0,29.74,West,271,0.0,2.0,61,0.00,,,0.00,383,weatherlink.com 1.10,2013-07-04 15:22:00,
2013-07-04 08:37:00,77.7,62.0,29.74,West,271,0.0,2.0,59,0.00,,,0.00,83,weatherlink.com 1.10,2013-07-04 15:37:00,
2013-07-04 08:52:00,78.2,62.0,29.75,West,271,0.0,1.0,57,0.00,,,0.00,91,weatherlink.com 1.10,2013-07-04 15:52:00,
2013-07-04 09:07:00,78.4,62.0,29.74,West,271,0.0,0.0,58,0.00,,,0.00,72,weatherlink.com 1.10,2013-07-04 16:07:00,
2013-07-04 09:14:00,78.3,62.3,29.73,West,271,0.0,4.0,58,0.00,,,0.00,77,Wunderground v.1.15,2013-07-04 16:14:00,
2013-07-04 09:23:00,78.1,62.0,29.73,West,271,2.0,3.0,59,0.00,,,0.00,425,weatherlink.com 1.10,2013-07-04 16:23:00,
2013-07-04 09:38:00,79.5,63.0,29.73,West,278,0.0,3.0,58,0.00,,,0.00,547,weatherlink.com 1.10,2013-07-04 16:38:00,
2013-07-04 09:53:00,83.0,63.0,29.73,ENE,75,0.0,3.0,51,0.00,,,0.00,561,weatherlink.com 1.10,2013-07-04 16:53:00,
2013-07-04 10:08:00,85.8,63.0,29.73,SW,234,0.0,3.0,46,0.00,,,0.00,592,weatherlink.com 1.10,2013-07-04 17:08:00,
2013-07-04 10:23:00,87.6,62.0,29.73,East,80,0.0,2.0,43,0.00,,,0.00,622,weatherlink.com 1.10,2013-07-04 17:23:00,
2013-07-04 10:38:00,90.6,62.0,29.74,East,80,0.0,1.0,39,0.00,,,0.00,649,weatherlink.com 1.10,2013-07-04 17:38:00,
2013-07-04 10:53:00,92.1,63.0,29.74,WNW,290,2.0,3.0,38,0.00,,,0.00,675,weatherlink.com 1.10,2013-07-04 17:53:00,
2013-07-04 11:08:00,92.9,64.0,29.74,West,267,1.0,2.0,38,0.00,,,0.00,694,weatherlink.com 1.10,2013-07-04 18:08:00,
2013-07-04 11:23:00,92.9,64.0,29.74,West,263,0.0,3.0,38,0.00,,,0.00,714,weatherlink.com 1.10,2013-07-04 18:23:00,
2013-07-04 11:38:00,94.1,62.0,29.74,West,274,5.0,5.0,34,0.00,,,0.00,733,weatherlink.com 1.10,2013-07-04 18:38:00,
2013-07-04 11:53:00,91.9,60.0,29.74,West,274,4.0,5.0,34,0.00,,,0.00,747,weatherlink.com 1.10,2013-07-04 18:53:00,
2013-07-04 12:08:00,90.5,60.0,29.74,West,262,3.0,8.0,36,0.00,,,0.00,759,weatherlink.com 1.10,2013-07-04 19:08:00,
2013-07-04 12:23:00,89.7,60.0,29.74,West,280,3.0,8.0,37,0.00,,,0.00,768,weatherlink.com 1.10,2013-07-04 19:23:00,
2013-07-04 12:38:00,90.9,60.0,29.73,West,271,2.0,7.0,36,0.00,,,0.00,775,weatherlink.com 1.10,2013-07-04 19:38:00,
2013-07-04 12:54:00,91.9,61.0,29.73,West,265,1.0,7.0,35,0.00,,,0.00,782,weatherlink.com 1.10,2013-07-04 19:54:00,
2013-07-04 13:09:00,92.7,61.0,29.73,West,278,1.0,7.0,35,0.00,,,0.00,784,weatherlink.com 1.10,2013-07-04 20:09:00,
2013-07-04 13:24:00,93.0,61.0,29.72,WNW,284,5.0,7.0,34,0.00,,,0.00,538,weatherlink.com 1.10,2013-07-04 20:24:00,
2013-07-04 13:39:00,93.8,61.0,29.72,West,267,5.0,6.0,34,0.00,,,0.00,369,weatherlink.com 1.10,2013-07-04 20:39:00,
2013-07-04 13:54:00,94.2,61.0,29.71,West,277,3.0,6.0,33,0.00,,,0.00,72,weatherlink.com 1.10,2013-07-04 20:54:00,
2013-07-04 14:09:00,94.4,61.0,29.71,West,281,1.0,7.0,33,0.00,,,0.00,54,weatherlink.com 1.10,2013-07-04 21:09:00,
2013-07-04 14:24:00,94.8,62.0,29.70,WNW,300,1.0,6.0,33,0.00,,,0.00,51,weatherlink.com 1.10,2013-07-04 21:24:00,
2013-07-04 14:39:00,95.4,61.0,29.70,WSW,252,1.0,4.0,32,0.00,,,0.00,56,weatherlink.com 1.10,2013-07-04 21:39:00,
2013-07-04 14:54:00,95.9,61.0,29.69,West,281,2.0,5.0,31,0.00,,,0.00,44,weatherlink.com 1.10,2013-07-04 21:54:00,
2013-07-04 15:09:00,96.1,62.0,29.68,WNW,288,1.0,3.0,32,0.00,,,0.00,42,weatherlink.com 1.10,2013-07-04 22:09:00,
2013-07-04 15:24:00,96.3,61.0,29.68,West,276,0.0,5.0,31,0.00,,,0.00,186,weatherlink.com 1.10,2013-07-04 22:24:00,
2013-07-04 15:39:00,96.4,61.0,29.68,WSW,255,0.0,3.0,31,0.00,,,0.00,40,weatherlink.com 1.10,2013-07-04 22:39:00,
2013-07-04 15:54:00,96.2,61.0,29.68,WSW,255,1.0,2.0,31,0.00,,,0.00,37,weatherlink.com 1.10,2013-07-04 22:54:00,
2013-07-04 16:09:00,95.6,61.0,29.67,West,265,0.0,2.0,32,0.00,,,0.00,35,weatherlink.com 1.10,2013-07-04 23:09:00,
2013-07-04 16:24:00,94.9,61.0,29.67,West,265,0.0,1.0,32,0.00,,,0.00,35,weatherlink.com 1.10,2013-07-04 23:24:00,
2013-07-04 16:39:00,94.6,61.0,29.66,West,265,2.0,2.0,33,0.00,,,0.00,58,weatherlink.com 1.10,2013-07-04 23:39:00,
2013-07-04 16:54:00,94.2,60.0,29.66,West,265,1.0,2.0,32,0.00,,,0.00,32,weatherlink.com 1.10,2013-07-04 23:54:00,
2013-07-04 17:09:00,93.6,59.0,29.66,West,259,4.0,4.0,31,0.00,,,0.00,39,weatherlink.com 1.10,2013-07-05 00:09:00,
2013-07-04 17:24:00,92.9,59.0,29.65,WSW,250,2.0,4.0,32,0.00,,,0.00,62,weatherlink.com 1.10,2013-07-05 00:24:00,
2013-07-04 17:39:00,92.4,59.0,29.65,West,267,2.0,4.0,32,0.00,,,0.00,28,weatherlink.com 1.10,2013-07-05 00:39:00,
2013-07-04 17:54:00,91.7,56.0,29.64,West,278,1.0,4.0,30,0.00,,,0.00,25,weatherlink.com 1.10,2013-07-05 00:54:00,
2013-07-04 18:09:00,91.1,56.0,29.64,West,272,1.0,5.0,30,0.00,,,0.00,21,weatherlink.com 1.10,2013-07-05 01:09:00,
2013-07-04 18:24:00,90.9,56.0,29.64,West,276,0.0,3.0,31,0.00,,,0.00,21,weatherlink.com 1.10,2013-07-05 01:24:00,
2013-07-04 18:39:00,90.2,56.0,29.64,West,279,2.0,4.0,31,0.00,,,0.00,19,weatherlink.com 1.10,2013-07-05 01:39:00,
2013-07-04 18:54:00,89.3,55.0,29.64,West,273,2.0,4.0,31,0.00,,,0.00,109,weatherlink.com 1.10,2013-07-05 01:54:00,
2013-07-04 19:09:00,88.8,54.0,29.64,West,274,4.0,5.0,30,0.00,,,0.00,28,weatherlink.com 1.10,2013-07-05 02:09:00,
2013-07-04 19:24:00,87.3,54.0,29.64,West,276,2.0,5.0,32,0.00,,,0.00,14,weatherlink.com 1.10,2013-07-05 02:24:00,
2013-07-04 19:39:00,86.0,54.0,29.64,West,277,3.0,6.0,33,0.00,,,0.00,23,weatherlink.com 1.10,2013-07-05 02:39:00,
2013-07-04 19:54:00,85.1,53.0,29.64,West,272,6.0,7.0,33,0.00,,,0.00,11,weatherlink.com 1.10,2013-07-05 02:54:00,
2013-07-04 20:09:00,84.0,53.0,29.65,West,270,4.0,9.0,34,0.00,,,0.00,7,weatherlink.com 1.10,2013-07-05 03:09:00,
2013-07-04 20:24:00,83.2,51.0,29.65,West,274,3.0,5.0,33,0.00,,,0.00,0,weatherlink.com 1.10,2013-07-05 03:24:00,
2013-07-04 20:39:00,82.8,51.0,29.66,West,271,1.0,3.0,33,0.00,,,0.00,0,weatherlink.com 1.10,2013-07-05 03:39:00,
2013-07-04 20:54:00,82.2,50.0,29.66,WNW,290,3.0,6.0,32,0.00,,,0.00,0,weatherlink.com 1.10,2013-07-05 03:54:00,
2013-07-04 21:09:00,81.6,50.0,29.66,West,278,2.0,4.0,33,0.00,,,0.00,0,weatherlink.com 1.10,2013-07-05 04:09:00,
2013-07-04 21:24:00,80.9,48.0,29.67,West,281,3.0,5.0,32,0.00,,,0.00,0,weatherlink.com 1.10,2013-07-05 04:24:00,
2013-07-04 21:39:00,80.5,49.0,29.67,West,279,0.0,3.0,33,0.00,,,0.00,0,weatherlink.com 1.10,2013-07-05 04:39:00,
2013-07-04 21:54:00,79.9,48.0,29.67,West,279,0.0,2.0,33,0.00,,,0.00,0,weatherlink.com 1.10,2013-07-05 04:54:00,
2013-07-04 22:09:00,79.3,49.0,29.67,West,279,0.0,0.0,35,0.00,,,0.00,0,weatherlink.com 1.10,2013-07-05 05:09:00,
2013-07-04 22:24:00,78.2,49.0,29.67,West,279,0.0,1.0,36,0.00,,,0.00,0,weatherlink.com 1.10,2013-07-05 05:24:00,
2013-07-04 22:39:00,77.0,49.0,29.67,West,281,0.0,1.0,37,0.00,,,0.00,0,weatherlink.com 1.10,2013-07-05 05:39:00,
2013-07-04 22:54:00,75.8,48.0,29.68,WNW,290,0.0,1.0,38,0.00,,,0.00,0,weatherlink.com 1.10,2013-07-05 05:54:00,
2013-07-04 23:09:00,74.9,49.0,29.67,North,5,0.0,3.0,40,0.00,,,0.00,0,weatherlink.com 1.10,2013-07-05 06:09:00,
2013-07-04 23:24:00,74.0,50.0,29.68,ENE,75,0.0,1.0,43,0.00,,,0.00,0,weatherlink.com 1.10,2013-07-05 06:24:00,
2013-07-04 23:39:00,72.8,51.0,29.68,ENE,65,0.0,2.0,46,0.00,,,0.00,0,weatherlink.com 1.10,2013-07-05 06:39:00,
2013-07-04 23:54:00,71.6,51.0,29.68,ENE,78,0.0,5.0,49,0.00,,,0.00,0,weatherlink.com 1.10,2013-07-05 06:54:00,